Terminal Aerodrome Forecast
Issued by NWS Buffalo, NY

Home | Current Version | Previous Version | Text Only | Print | Product List | Glossary On
Versions: 1 2 3 4 5 6 7 8 9 10 11 12 13 14 15 16 17 18 19 20 21 22 23 24 25 26 27
915
FTUS41 KBUF 062327
TAFBUF
TAF
KBUF 062327Z 0700/0724 08007KT P6SM VCSH OVC070
     FM070100 09005KT P6SM OVC060
     FM070300 VRB03KT P6SM BKN050
     FM071300 19007KT P6SM SCT080
     FM071900 22007KT P6SM VCSH BKN200
     FM072100 24006KT 6SM -SHRA BKN060=

USA.gov is the U.S. government's official web portal to all federal, state and local government web resources and services.